CheckWX is a tool to help pilots better visualize weather data.  It is not intended as a substitute for an official pre-flight weather briefing.

08:33:45 UTC

KSUE METAR
Door County Cherryland Airport
Sturgeon Bay, Wisconsin, USA
Current

38 mins ago

KSUE 260756Z AUTO 29008KT 10SM OVC034 00/M01 A2980 RMK AO2 UPB14E24B49E51SNE14B24E49 SLP100 P0000 T00001006 FZRANO $
Observed
Jan-26 @ 07:56 UTC
Wind
  • 290° at 8 KTS
Visibility
10 SM
Flight Rules
VFR
Cloud Levels
  • Overcast at 3,400' AGL
Temperature
C / 32°F
Dewpoint
-1°C / 30°F
Humidity
93%
Altimeter
29.8" Hg
Pressure
1009.12 hPa
Current Rain
0.01"
Previous

2 hours ago

KSUE 260656Z AUTO 30008KT 10SM -SN SCT034 OVC050 00/M01 A2981 RMK AO2 UPB45E53SNE45B53 SLP101 P0000 T00001006 FZRANO $
Observed
Jan-26 @ 06:56 UTC
Wind
  • 300° at 8 KTS
Visibility
10 SM
Flight Rules
VFR
Conditions
Light Snow
Cloud Levels
  • Scattered at 3,400' AGL
  • Overcast at 5,000' AGL
Temperature
C / 32°F
Dewpoint
-1°C / 30°F
Humidity
93%
Altimeter
29.81" Hg
Pressure
1009.52 hPa
Current Rain
0.01"
Previous

3 hours ago

KSUE 260556Z AUTO 30007KT 9SM -SN BKN004 BKN010 OVC030 00/M01 A2980 RMK AO2 RAB02E09SNB09 SLP099 P0000 60000 T00001006 10006 20000 400170000 50002 FZRANO $
Observed
Jan-26 @ 05:56 UTC
Wind
  • 300° at 7 KTS
Visibility
9 SM
Flight Rules
LIFR
Conditions
Light Snow
Cloud Levels
  • Broken at 400' AGL
  • Broken at 1,000' AGL
  • Overcast at 3,000' AGL
Temperature
C / 32°F
Dewpoint
-1°C / 30°F
Humidity
93%
Altimeter
29.8" Hg
Pressure
1009.12 hPa
Current Rain
0.01"